Ocean City, MD

11:09 AM EDT on September 02, 2014 (GMT -0400)
Ocean City Municipal | Change Station
CLOSE
Current Station
Airport
Location: Ocean City,
Elevation: 13 ft
Nearby Weather Stations

Elev 13 ft 38.31 °N, 75.12 °W | Updated 16 minutes ago

Clear
Clear
89 °F
Feels Like 96 °F
N
8
Wind Variable Wind from SW

Today
High -- | Low -- °F
--% Chance of Precip.
Yesterday
High -- | Low -- °F
Precip. -- in
6:30 AM 7:28 PM
First Quarter, 52% visible
Pressure 29.99 in
Visibility 10.0 miles
Clouds Clear
Heat Index 96 °F
Dew Point 72 °F
Humidity 57%
Rainfall 0.00 in
Snow Depth Not available.
UV 7 out of 12
Pollen 9.30 out of 12
Air Quality Not available.
Flu Activity Not available.
METAR KOXB 021453Z AUTO 23007KT 10SM CLR 32/22 A2999 RMK AO2 SLP154 T03170222 58000 TSNO

More Conditions Fewer Conditions

Pressure 29.99 in
Visibility 10.0 miles
Clouds Clear
Heat Index 96 °F
Dew Point 72 °F
Humidity 57%
Rainfall 0.00 in
Snow Depth Not available.
UV 7 out of 12
Pollen 9.30 out of 12
Air Quality Not available.
Flu Activity Not available.
METAR KOXB 021453Z AUTO 23007KT 10SM CLR 32/22 A2999 RMK AO2 SLP154 T03170222 58000 TSNO

More Conditions Fewer Conditions

10-Day Weather Forecast

Almanac

Astronomy

Sep. 02, 2014 Rise Set
Actual Time 6:30 AM EDT 7:28 PM EDT
Civil Twilight 6:03 AM EDT 7:55 PM EDT
Nautical Twilight 5:31 AM EDT 8:27 PM EDT
Astronomical Twilight 4:58 AM EDT 9:01 PM EDT
Moon 2:07 PM EDT No Moon Set
Length of Visible Light 13h 52m
Length of Day
12h 58m
Tomorrow will be 2m 23s shorter.
First Quarter, 52% of the Moon is Illuminated
Today
First Quarter
Sep 8
Full
Sep 15
Last Quarter
Sep 24
New
Oct 1
First Quarter

Today's Extremes

State Highs State Lows

Community

WunderPhotos

Upload Photos

1,749,688 photos uploaded!

WunderBlogs® & News

Nearby

Snow Depth

Station Depth Elevation
No new snow has been reported.

Earthquake Activity

City Distance Mag. Time & Date
No recent earthquake activity has been reported nearby.
Minimum magnitude displayed is 2.5.

Coastal Water Temperatures

Place Temperature
Ocean City Inlet, MD 79.0 °F
Wachapreague, VA 81.0 °F
Lewes, DE 77.0 °F
Cape May, NJ 81.0 °F
Bishops Head, MD 80.1 °F

Nearby Weather Stations